fecha-hora | temperatura | viento dirección-velocidad-rachas | humedad | presión

  • 03-04-2020 20:00:00 | 17.40°C | Sudeste-2.00 km/h - 13.00 km/h | 37.00% | 947.30 hPa
  • 03-04-2020 19:00:00 | 17.60°C | Sudeste-6.00 km/h - 15.00 km/h | 35.00% | 947.10 hPa
  • 03-04-2020 18:00:00 | 17.80°C | Sudeste-9.00 km/h - 21.00 km/h | 36.00% | 947.10 hPa
  • 03-04-2020 17:00:00 | 18.10°C | Sudeste-6.00 km/h - 13.00 km/h | 35.00% | 947.30 hPa
  • 03-04-2020 16:00:00 | 17.00°C | Sur-5.00 km/h - 15.00 km/h | 37.00% | 948.00 hPa
  • 03-04-2020 15:00:00 | 15.80°C | Norte-8.00 km/h - 17.00 km/h | 37.00% | 948.50 hPa
  • 03-04-2020 14:00:00 | 14.50°C | Este-5.00 km/h - 13.00 km/h | 43.00% | 949.20 hPa
  • 03-04-2020 13:00:00 | 13.40°C | Sur-5.00 km/h - 13.00 km/h | 54.00% | 949.50 hPa
  • 03-04-2020 12:00:00 | 11.80°C | Sudeste-5.00 km/h - 13.00 km/h | 59.00% | 949.90 hPa
  • 03-04-2020 11:00:00 | 8.60°C | Norte-5.00 km/h - 11.00 km/h | 72.00% | 950.00 hPa
  • 03-04-2020 10:00:00 | 5.70°C | Noroeste-6.00 km/h - 11.00 km/h | 83.00% | 949.70 hPa
  • 03-04-2020 09:00:00 | 2.60°C | Norte-5.00 km/h - 8.00 km/h | 94.00% | 949.50 hPa
  • 03-04-2020 08:00:00 | 2.00°C | Norte-5.00 km/h - 11.00 km/h | 92.00% | 948.80 hPa
  • 03-04-2020 07:00:00 | 2.90°C | Noroeste-5.00 km/h - 9.00 km/h | 91.00% | 948.20 hPa
  • 03-04-2020 06:00:00 | 3.70°C | Calma-0.00 km/h - 0.00 km/h | 90.00% | 947.80 hPa
  • 03-04-2020 05:00:00 | 4.90°C | Nordeste-5.00 km/h - 8.00 km/h | 85.00% | 947.80 hPa
  • 03-04-2020 04:00:00 | 6.10°C | Norte-5.00 km/h - 13.00 km/h | 80.00% | 947.70 hPa
  • 03-04-2020 03:00:00 | 6.20°C | Nordeste-4.00 km/h - 9.00 km/h | 82.00% | 947.80 hPa
  • 03-04-2020 02:00:00 | 7.10°C | Noroeste-4.00 km/h - 11.00 km/h | 78.00% | 947.90 hPa
  • 03-04-2020 01:00:00 | 8.30°C | Norte-5.00 km/h - 8.00 km/h | 79.00% | 947.80 hPa
  • 03-04-2020 00:00:00 | 10.10°C | Norte-6.00 km/h - 9.00 km/h | 75.00% | 947.70 hPa
  • 02-04-2020 23:00:00 | 10.90°C | Norte-5.00 km/h - 13.00 km/h | 72.00% | 947.40 hPa
  • 02-04-2020 22:00:00 | 11.00°C | Norte-8.00 km/h - 11.00 km/h | 75.00% | 946.70 hPa
  • 02-04-2020 21:00:00 | 11.30°C | Norte-6.00 km/h - 9.00 km/h | 70.00% | 945.80 hPa
    • diseño web asturias Información sobre el estado de las mareas, altura de la marejada, temperatura del agua y otros datos de Gijón en Asturias.

      Surf Gijón